首页
METAR-TAF:

METAR-TAF

机场 :

Chautauqua County/Jamestown Airport

Jamestown, 紐約州, 美国

纬度: 42-09N, 经度: 079-16W, 海拔: 525米

当前天气观测

该预报发布于32分钟前的21:56 UTC
风速21节,风向西,有时为31节阵风
温度 12°C
湿度 67%
气压 1006 hPa
能見度: 16.1公里
少量云层高于7500英尺

METAR: KJHW 292156Z AUTO 28021G31KT 10SM FEW075 12/06 A2972 RMK AO2 PK WND 28031/2149 SLP067 T01170056

时间: 18:28 (22:28 UTC)

预报

该预报发布于54分钟前的21:34 UTC
预报有效从29日的 22点(UTC)到 30日的 18点(UTC)
风速17节,风向西,有时为27节阵风
能見度: 10公里
阴天层高于5000英尺
附近有阵雨
从 30日的 0000点(UTC)
风速11节,风向西,有时为24节阵风
能見度: 10公里
阴天层高于2500英尺
附近有阵雨
从 30日的 0400点(UTC)
风速12节,风向西南,有时为23节阵风
能見度: 9.7公里
阴天层高于4000英尺
小阵雨, 轻雾
从 30日的 1100点(UTC)
风速15节,风向西转西南,有时为24节阵风
能見度: 10公里
阴天层高于1500英尺
小阵雨
从 30日的 1600点(UTC)
风速16节,风向西,有时为27节阵风
能見度: 10公里
阴天层高于700英尺
小阵雨

TAF: KJHW 292134Z 2922/3018 27017G27KT P6SM VCSH OVC050 FM300000 26011G24KT P6SM VCSH OVC025 FM300400 23012G23KT 6SM -SHRA BR OVC040 FM301100 25015G24KT P6SM -SHRA OVC015 FM301600 26016G27KT P6SM -SHRA OVC007

超过4000个机场的气象观测和天气预报(METAR&TAF报告)。

可查询的气象台以黄色和红色小点在地图上表示。

将鼠标移到小点上方,可查看气象台名称。

然后点击查看天气观测和预报。

如需切换地图:点击带黑十字的绿色按钮放大地图;点击带横线的绿色按钮缩小地图;或者点击绿色箭头查看邻近地区的地图。


METAR-TAF: